createdAt,value
2019-06-07T00:02:25.717Z,100233.53
2019-06-07T00:07:29.593Z,100233.53
2019-06-07T00:12:33.374Z,100276.09
2019-06-07T00:17:37.171Z,100285.32
2019-06-07T00:22:40.996Z,100283.66
2019-06-07T00:27:44.836Z,100264.45
2019-06-07T00:32:48.618Z,100282.77
2019-06-07T00:37:52.389Z,100283.41
2019-06-07T00:42:56.150Z,100296.91
2019-06-07T00:48:00.081Z,100296.91
2019-06-07T00:53:29.152Z,100298.70
2019-06-07T00:58:09.415Z,100298.70
2019-06-07T01:03:14.853Z,100302.80
2019-06-07T01:08:21.568Z,100302.80
2019-06-07T01:13:26.766Z,100316.83
2019-06-07T01:18:38.440Z,100329.16
2019-06-07T01:24:05.515Z,100333.97
2019-06-07T01:28:41.290Z,100333.97
2019-06-07T01:33:50.780Z,100339.91
2019-06-07T01:38:50.749Z,100333.92
2019-06-07T01:43:54.675Z,100333.92
2019-06-07T01:48:58.454Z,100334.11
2019-06-07T01:54:48.672Z,100328.95
2019-06-07T01:59:08.058Z,100330.05
2019-06-07T02:04:11.941Z,100317.48
2019-06-07T02:09:15.816Z,100317.48
2019-06-07T02:14:22.301Z,100330.05
2019-06-07T02:19:27.463Z,100327.05
2019-06-07T02:24:34.628Z,100341.08
2019-06-07T02:29:36.371Z,100333.69
2019-06-07T02:34:40.242Z,100328.50
2019-06-07T02:39:44.030Z,100328.50
2019-06-07T02:44:47.798Z,100325.88
2019-06-07T02:49:51.738Z,100313.45
2019-06-07T02:54:55.578Z,100318.25
2019-06-07T03:00:16.634Z,100309.66
2019-06-07T03:05:05.138Z,100317.03
2019-06-07T03:10:09.829Z,100311.89
2019-06-07T03:15:31.981Z,100318.86
2019-06-07T03:20:20.607Z,100317.98
2019-06-07T03:25:25.737Z,100314.93
2019-06-07T03:30:48.630Z,100321.72
2019-06-07T03:35:37.344Z,100311.78
2019-06-07T03:40:40.743Z,100321.95
2019-06-07T03:45:44.619Z,100327.72
2019-06-07T03:51:03.851Z,100334.30
2019-06-07T03:55:53.861Z,100350.78
2019-06-07T04:01:01.978Z,100362.54
2019-06-07T04:06:03.156Z,100362.54
2019-06-07T04:11:06.913Z,100357.44
2019-06-07T04:16:10.721Z,100363.92
2019-06-07T04:21:14.547Z,100347.16
2019-06-07T04:26:18.324Z,100356.39
2019-06-07T04:31:22.240Z,100359.33
2019-06-07T04:36:44.288Z,100359.33
2019-06-07T04:41:33.555Z,100354.30
2019-06-07T04:46:40.804Z,100359.83
2019-06-07T04:51:42.726Z,100370.55
2019-06-07T04:56:46.497Z,100368.65
2019-06-07T05:01:50.265Z,100372.22
2019-06-07T05:06:54.102Z,100372.22
2019-06-07T05:11:57.918Z,100354.64
2019-06-07T05:17:01.684Z,100354.64
2019-06-07T05:22:05.593Z,100362.97
2019-06-07T05:27:09.387Z,100372.88
2019-06-07T05:32:13.376Z,100365.30
2019-06-07T05:37:17.151Z,100364.70
2019-06-07T05:42:20.928Z,100360.70
2019-06-07T05:47:25.402Z,100374.07
2019-06-07T05:52:29.348Z,100365.00
2019-06-07T05:57:36.340Z,100360.80
2019-06-07T06:02:58.708Z,100360.80
2019-06-07T06:07:49.972Z,100356.92
2019-06-07T06:12:51.653Z,100351.91
2019-06-07T06:17:55.139Z,100341.14
2019-06-07T06:22:58.964Z,100332.44
2019-06-07T06:28:11.122Z,100332.44
2019-06-07T06:33:27.068Z,100339.31
2019-06-07T06:38:13.774Z,100330.03
2019-06-07T06:43:17.567Z,100334.58
2019-06-07T06:48:21.499Z,100350.01
2019-06-07T06:53:25.292Z,100346.96
2019-06-07T06:58:29.052Z,100346.96
2019-06-07T07:04:09.551Z,100347.78
2019-06-07T07:08:38.320Z,100346.91
2019-06-07T07:13:44.482Z,100347.72
2019-06-07T07:18:51.224Z,100346.36
2019-06-07T07:24:19.513Z,100356.14
2019-06-07T07:28:58.577Z,100356.14
2019-06-07T07:39:07.907Z,100341.66
2019-06-07T07:44:11.721Z,100334.66
2019-06-07T07:49:15.495Z,100334.66
2019-06-07T07:54:19.292Z,100333.31
2019-06-07T07:59:41.121Z,100332.88
2019-06-07T08:05:12.375Z,100324.17
2019-06-07T08:09:34.296Z,100324.17
2019-06-07T08:14:38.060Z,100319.08
2019-06-07T08:19:41.842Z,100318.47
2019-06-07T08:24:45.610Z,100316.97
2019-06-07T08:30:10.221Z,100308.67
2019-06-07T08:34:59.792Z,100314.08
2019-06-07T08:40:01.814Z,100310.54
2019-06-07T08:45:07.087Z,100310.54
2019-06-07T08:50:10.948Z,100300.17
2019-06-07T08:55:14.762Z,100302.34
2019-06-07T09:00:43.356Z,100293.14
2019-06-07T09:05:25.371Z,100293.14
2019-06-07T09:10:29.221Z,100288.44
2019-06-07T09:15:32.990Z,100287.44
2019-06-07T09:20:47.698Z,100281.63
2019-06-07T09:26:01.018Z,100273.77
2019-06-07T09:30:57.883Z,100273.45
2019-06-07T09:36:09.222Z,100258.88
2019-06-07T09:41:09.642Z,100254.84
2019-06-07T09:46:16.285Z,100254.84
2019-06-07T09:51:20.543Z,100237.13
2019-06-07T09:56:24.759Z,100223.33
2019-06-07T10:01:28.546Z,100220.33
2019-06-07T10:06:32.334Z,100220.33
2019-06-07T10:11:36.116Z,100205.14
2019-06-07T10:16:48.026Z,100203.43
2019-06-07T10:21:45.403Z,100203.43
2019-06-07T10:26:49.166Z,100216.10
2019-06-07T10:31:53.003Z,100221.00
2019-06-07T10:36:56.821Z,100210.06
2019-06-07T10:42:00.939Z,100206.41
2019-06-07T10:47:06.060Z,100206.41
2019-06-07T10:52:11.519Z,100209.56
2019-06-07T11:13:33.719Z,100184.23
2019-06-07T11:18:37.505Z,100177.47
2019-06-07T11:23:41.279Z,100177.47
2019-06-07T11:28:45.082Z,100172.66
2019-06-07T12:11:16.366Z,100122.24
2019-06-07T12:16:20.511Z,100122.24
2019-06-07T12:21:24.313Z,100113.43
2019-06-07T12:26:28.134Z,100108.73
2019-06-07T12:31:31.973Z,100093.59
2019-06-07T12:36:35.741Z,100102.89
2019-06-07T12:41:39.520Z,100087.91
2019-06-07T12:46:43.295Z,100087.91
2019-06-07T12:51:47.086Z,100077.60
2019-06-07T12:56:52.439Z,100077.60
2019-06-07T13:02:01.834Z,100076.45
2019-06-07T13:07:02.028Z,100065.09
2019-06-07T13:12:05.809Z,100048.28
2019-06-07T13:17:09.608Z,100048.28
2019-06-07T13:22:13.405Z,100037.45
2019-06-07T13:27:18.278Z,100037.45
2019-06-07T13:32:22.227Z,100030.69
2019-06-07T13:37:26.034Z,100030.69
2019-06-07T13:42:29.969Z,100015.20
2019-06-07T13:47:33.867Z,100012.56
2019-06-07T13:52:37.848Z,100004.47
2019-06-07T13:57:41.687Z,100004.34
2019-06-07T14:02:45.538Z,100004.34
2019-06-07T14:07:49.392Z,99977.52
2019-06-07T14:12:53.241Z,99975.72
2019-06-07T14:17:57.041Z,99962.52
2019-06-07T14:23:00.864Z,99958.97
2019-06-07T14:28:11.019Z,99962.83
2019-06-07T14:33:10.377Z,99949.83
2019-06-07T14:38:14.136Z,99927.41
2019-06-07T14:43:17.933Z,99927.41
2019-06-07T14:48:21.718Z,99943.19
2019-06-07T14:53:26.589Z,99938.55
2019-06-07T14:58:31.732Z,99933.84
2019-06-07T15:03:35.623Z,99934.83
2019-06-07T15:08:39.394Z,99927.08
2019-06-07T15:13:43.169Z,99917.30
2019-06-07T15:18:47.300Z,99915.80
2019-06-07T15:23:51.107Z,99905.90
2019-06-07T15:28:54.858Z,99907.43
2019-06-07T15:33:58.653Z,99899.91
2019-06-07T15:39:02.439Z,99895.30
2019-06-07T15:44:06.191Z,99891.45
2019-06-07T15:49:09.989Z,99891.45
2019-06-07T15:54:13.764Z,99876.53
2019-06-07T15:59:17.545Z,99857.98
2019-06-07T16:04:21.354Z,99857.69
2019-06-07T16:09:25.128Z,99833.52
2019-06-07T16:14:28.908Z,99850.76
2019-06-07T16:19:34.308Z,99851.55
2019-06-07T16:24:38.283Z,99848.17
2019-06-07T16:29:42.759Z,99848.17
2019-06-07T16:34:46.685Z,99859.03
2019-06-07T16:39:50.443Z,99851.45
2019-06-07T16:44:54.287Z,99843.23
2019-06-07T16:49:58.059Z,99839.68
2019-06-07T16:55:01.987Z,99844.45
2019-06-07T17:00:06.331Z,99851.30
2019-06-07T17:05:10.169Z,99850.30
2019-06-07T17:10:14.022Z,99844.67
2019-06-07T17:15:17.916Z,99833.73
2019-06-07T17:20:23.338Z,99833.73
2019-06-07T17:25:27.128Z,99832.22
2019-06-07T17:30:30.980Z,99832.22
2019-06-07T17:35:34.750Z,99822.75
2019-06-07T17:40:38.608Z,99811.94
2019-06-07T17:45:43.461Z,99811.94
2019-06-07T17:50:47.821Z,99805.01
2019-06-07T17:55:52.394Z,99802.31
2019-06-07T18:00:56.246Z,99790.99
2019-06-07T18:06:00.095Z,99792.27
2019-06-07T18:11:04.404Z,99783.82
2019-06-07T18:16:08.189Z,99779.59
2019-06-07T18:21:12.031Z,99747.34
2019-06-07T18:26:16.023Z,99744.50
2019-06-07T18:31:19.859Z,99755.14
2019-06-07T18:36:23.637Z,99769.42
2019-06-07T18:41:27.413Z,99758.95
2019-06-07T18:46:31.189Z,99758.95
2019-06-07T18:51:35.045Z,99774.91
2019-06-07T18:56:38.841Z,99777.61
2019-06-07T19:01:42.690Z,99788.17
2019-06-07T19:06:46.486Z,99797.33
2019-06-07T19:11:50.895Z,99792.17
2019-06-07T19:16:55.584Z,99792.97
2019-06-07T19:22:00.164Z,99792.97
2019-06-07T19:27:04.467Z,99785.06
2019-06-07T19:32:08.411Z,99809.08
2019-06-07T19:37:12.192Z,99805.36
2019-06-07T19:42:15.970Z,99805.36
2019-06-07T19:47:19.748Z,99805.20
2019-06-07T19:52:23.509Z,99814.98
2019-06-07T19:57:27.310Z,99819.03
2019-06-07T20:02:31.094Z,99815.11
2019-06-07T20:07:34.886Z,99815.11
2019-06-07T20:12:39.623Z,99833.57
2019-06-07T20:17:43.695Z,99832.02
2019-06-07T20:22:47.469Z,99832.02
2019-06-07T20:27:51.232Z,99856.47
2019-06-07T20:32:55.192Z,99848.50
2019-06-07T20:37:59.062Z,99848.50
2019-06-07T20:43:03.521Z,99842.50
2019-06-07T20:48:08.448Z,99842.49
2019-06-07T20:53:12.488Z,99840.59
2019-06-07T20:58:16.351Z,99832.47
2019-06-07T21:03:20.143Z,99843.27
2019-06-07T21:08:24.014Z,99836.36
2019-06-07T21:13:28.135Z,99839.22
2019-06-07T21:18:31.935Z,99827.73
2019-06-07T21:23:35.777Z,99817.62
2019-06-07T21:28:39.943Z,99817.62
2019-06-07T21:33:43.933Z,99834.48
2019-06-07T21:38:47.805Z,99847.66
2019-06-07T21:43:51.597Z,99868.48
2019-06-07T21:48:55.643Z,99868.48
2019-06-07T21:53:59.442Z,99900.58
2019-06-07T21:59:03.430Z,99916.62
2019-06-07T22:04:07.545Z,99916.62
2019-06-07T22:09:12.425Z,99935.51
2019-06-07T22:14:16.251Z,99946.31
2019-06-07T22:19:20.028Z,99933.94
2019-06-07T22:24:23.813Z,99933.94
2019-06-07T22:29:27.584Z,99919.80
2019-06-07T22:34:31.440Z,99902.34
2019-06-07T22:39:35.212Z,99902.34
2019-06-07T22:44:40.269Z,100078.50
2019-06-07T22:49:44.067Z,100074.42
2019-06-07T22:54:47.848Z,100073.06
2019-06-07T22:59:51.608Z,100073.06
2019-06-07T23:04:55.482Z,100082.80
2019-06-07T23:09:59.277Z,100074.52
2019-06-07T23:15:03.078Z,100074.52
2019-06-07T23:20:07.456Z,100083.60
2019-06-07T23:25:12.233Z,100120.03
2019-06-07T23:30:18.596Z,100120.03
2019-06-07T23:35:22.873Z,100162.23
2019-06-07T23:40:26.673Z,100175.77
2019-06-07T23:45:30.505Z,100175.77
2019-06-07T23:50:34.274Z,100207.33
2019-06-07T23:55:38.086Z,100233.19
